Time;durP1;ratioP1;P1;durP2;ratioP2;P2;SDS_P1;SDS_P2;PMS_P1;PMS_P2;Temp;Humidity;BMP_temperature;BMP_pressure;BME280_temperature;BME280_humidity;BME280_pressure;Samples;Min_cycle;Max_cycle;Signal;HPM_P1;HPM_P2
2022/05/01 00:01:01;;;;;;;25.32;14.40;;;;;;;7.04;71.01;101854.17;1682650;85;25717;-58
2022/05/01 00:03:31;;;;;;;20.88;13.65;;;;;;;7.10;71.00;101857.44;1670562;83;25829;-58
2022/05/01 00:06:00;;;;;;;25.08;14.78;;;;;;;7.13;71.03;101869.33;1650003;86;25741;-59
2022/05/01 00:08:28;;;;;;;27.42;14.87;;;;;;;7.14;71.35;101866.55;1650603;86;27484;-59
2022/05/01 00:10:57;;;;;;;24.47;14.98;;;;;;;7.12;71.13;101864.46;1650321;86;44480;-59
2022/05/01 00:13:25;;;;;;;30.72;14.98;;;;;;;7.13;71.07;101860.80;1650668;85;25811;-58
2022/05/01 00:15:53;;;;;;;25.70;14.63;;;;;;;7.14;71.13;101867.89;1650615;86;25801;-58
2022/05/01 00:18:21;;;;;;;23.12;14.60;;;;;;;7.14;71.10;101865.70;1650577;86;25741;-59
2022/05/01 00:20:48;;;;;;;27.85;15.63;;;;;;;7.12;71.12;101867.14;1650459;85;27344;-58
2022/05/01 00:23:16;;;;;;;30.23;16.42;;;;;;;7.10;70.98;101865.47;1650538;86;25749;-58
2022/05/01 00:25:43;;;;;;;33.20;16.05;;;;;;;7.08;71.05;101865.56;1650606;85;25751;-58
2022/05/01 00:28:12;;;;;;;28.55;16.10;;;;;;;7.08;70.92;101866.91;1650611;86;25809;-58
2022/05/01 00:30:41;;;;;;;28.23;16.90;;;;;;;7.10;70.85;101863.67;1650610;85;25749;-59
2022/05/01 00:38:40;;;;;;;27.58;16.27;;;;;;;7.05;70.63;101867.06;1681606;85;25708;-59
2022/05/01 00:41:08;;;;;;;21.12;13.80;;;;;;;7.04;70.84;101862.66;1682296;83;25817;-58
2022/05/01 00:44:00;;;;;;;25.82;14.40;;;;;;;7.00;70.73;101872.68;1689753;83;25709;-58
2022/05/01 00:46:28;;;;;;;22.67;14.40;;;;;;;6.97;70.84;101868.86;1704984;84;28196;-59
2022/05/01 00:48:54;;;;;;;27.65;15.08;;;;;;;6.93;70.75;101864.61;1707206;84;25759;-59
2022/05/01 00:51:22;;;;;;;27.45;16.67;;;;;;;6.91;70.90;101862.98;1662311;84;25496;-58
2022/05/01 00:53:50;;;;;;;33.73;17.48;;;;;;;6.86;70.98;101864.57;1661265;86;25881;-59
2022/05/01 00:56:18;;;;;;;26.12;15.05;;;;;;;6.84;70.99;101859.77;1657707;86;25514;-58
2022/05/01 00:58:48;;;;;;;25.65;14.50;;;;;;;6.78;70.86;101864.98;1654600;86;28201;-59
2022/05/01 01:01:16;;;;;;;32.93;15.75;;;;;;;6.71;70.92;101862.27;1654684;86;25831;-58
2022/05/01 01:03:42;;;;;;;27.25;16.40;;;;;;;6.58;70.65;101861.62;1649580;86;25804;-59
2022/05/01 01:06:09;;;;;;;29.80;16.80;;;;;;;6.57;70.76;101867.02;1642368;85;25748;-58
2022/05/01 01:08:37;;;;;;;29.90;17.90;;;;;;;6.52;70.89;101860.59;1643736;87;25718;-59
2022/05/01 01:11:04;;;;;;;29.42;17.57;;;;;;;6.46;70.88;101862.27;1644729;87;27481;-58
2022/05/01 01:13:30;;;;;;;26.30;16.07;;;;;;;6.39;70.92;101866.22;1644948;86;25844;-58
2022/05/01 01:15:58;;;;;;;27.40;18.12;;;;;;;6.31;70.71;101870.63;1644569;86;25738;-59
2022/05/01 01:18:26;;;;;;;27.48;16.95;;;;;;;6.26;70.84;101874.03;1644729;86;25777;-59
2022/05/01 01:20:53;;;;;;;29.27;18.52;;;;;;;6.18;70.86;101871.75;1644941;86;25750;-58
2022/05/01 01:23:22;;;;;;;32.28;18.73;;;;;;;6.15;71.11;101873.23;1644628;87;27471;-58
2022/05/01 01:25:50;;;;;;;27.95;17.85;;;;;;;6.11;71.18;101871.69;1644831;87;25755;-59
2022/05/01 01:28:19;;;;;;;32.73;16.37;;;;;;;6.08;71.11;101874.50;1644726;86;25713;-59
2022/05/01 01:33:31;;;;;;;23.98;14.53;;;;;;;5.98;71.09;101870.55;1642974;86;25507;-59
2022/05/01 01:36:05;;;;;;;28.83;13.65;;;;;;;5.95;71.44;101871.13;1650554;86;26940;-59
2022/05/01 01:38:32;;;;;;;;;;;;;;;5.96;71.55;101874.16;1652841;86;26192;-59
2022/05/01 01:41:03;;;;;;;20.65;11.35;;;;;;;5.96;72.33;101870.15;1652866;86;25789;-59
2022/05/01 01:43:31;;;;;;;22.85;12.47;;;;;;;5.89;73.46;101874.09;1667463;86;25749;-59
2022/05/01 01:45:58;;;;;;;18.32;11.57;;;;;;;5.84;73.35;101871.25;1666549;86;25811;-58
2022/05/01 01:48:25;;;;;;;16.23;11.68;;;;;;;5.84;73.21;101870.80;1662377;86;27660;-59
2022/05/01 01:51:05;;;;;;;17.02;11.45;;;;;;;5.87;73.06;101867.95;1662200;86;27287;-59
2022/05/01 01:53:36;;;;;;;15.98;10.85;;;;;;;5.93;73.31;101862.77;1662310;86;25767;-59
2022/05/01 01:56:05;;;;;;;17.42;10.43;;;;;;;5.95;73.37;101865.78;1662404;86;25793;-59
2022/05/01 01:58:32;;;;;;;18.40;11.65;;;;;;;5.98;73.24;101866.54;1662127;86;25799;-59
2022/05/01 02:00:59;;;;;;;17.20;11.70;;;;;;;6.02;73.36;101865.48;1661829;86;28253;-59
2022/05/01 02:03:27;;;;;;;15.83;10.45;;;;;;;6.07;73.34;101862.97;1661088;85;25692;-59
2022/05/01 02:05:54;;;;;;;16.75;11.18;;;;;;;6.12;73.33;101869.41;1656861;86;25804;-59
2022/05/01 02:08:21;;;;;;;14.53;10.48;;;;;;;6.15;73.38;101864.37;1656988;85;25811;-59
2022/05/01 02:10:48;;;;;;;15.45;11.05;;;;;;;6.18;73.34;101860.21;1657010;85;25802;-59
2022/05/01 02:13:16;;;;;;;16.70;10.85;;;;;;;6.20;73.24;101863.64;1657022;85;27471;-59
2022/05/01 02:15:44;;;;;;;17.77;11.57;;;;;;;6.20;73.25;101860.52;1656960;86;25728;-59
2022/05/01 02:18:11;;;;;;;20.77;12.03;;;;;;;6.22;73.40;101864.43;1657319;86;25824;-58
2022/05/01 02:23:24;;;;;;;21.73;13.00;;;;;;;6.23;72.86;101865.67;1656986;86;25752;-59
2022/05/01 02:25:52;;;;;;;23.85;13.22;;;;;;;6.25;72.81;101867.80;1657052;86;28229;-59
2022/05/01 02:28:18;;;;;;;20.70;12.73;;;;;;;6.24;72.65;101863.40;1656906;86;25784;-59
2022/05/01 02:30:46;;;;;;;17.80;12.95;;;;;;;6.23;72.53;101864.83;1656946;85;25814;-58
2022/05/01 02:33:13;;;;;;;20.05;11.53;;;;;;;6.22;72.54;101865.77;1660480;86;25733;-59
2022/05/01 02:35:40;;;;;;;19.60;12.70;;;;;;;6.17;72.32;101863.34;1661693;86;25775;-59
2022/05/01 02:38:07;;;;;;;22.48;11.12;;;;;;;6.16;72.27;101864.77;1661890;86;27556;-59
2022/05/01 02:40:34;;;;;;;24.43;12.03;;;;;;;6.11;72.02;101871.20;1661998;86;26114;-60
2022/05/01 02:43:01;;;;;;;22.52;12.47;;;;;;;6.06;71.88;101865.70;1647941;85;25501;-59
2022/05/01 02:45:29;;;;;;;18.98;12.37;;;;;;;5.99;71.72;101868.27;1647739;86;26512;-58
2022/05/01 02:47:56;;;;;;;17.87;12.25;;;;;;;5.93;71.73;101867.66;1647397;87;27305;-58
2022/05/01 02:50:24;;;;;;;17.57;11.68;;;;;;;5.86;71.69;101863.58;1646373;85;27875;-59
2022/05/01 02:52:51;;;;;;;17.75;12.25;;;;;;;5.81;71.56;101869.61;1644896;87;25728;-59
2022/05/01 02:55:19;;;;;;;21.07;11.57;;;;;;;5.72;71.51;101864.73;1645064;87;25722;-59
2022/05/01 02:57:46;;;;;;;18.00;11.53;;;;;;;5.68;71.63;101867.19;1644991;86;25797;-58
2022/05/01 03:00:17;;;;;;;33.70;12.85;;;;;;;5.59;71.55;101865.38;1644991;86;25700;-58
2022/05/01 03:02:48;;;;;;;24.43;13.72;;;;;;;5.52;71.69;101862.59;1644945;87;27333;-58
2022/05/01 03:05:16;;;;;;;20.85;12.75;;;;;;;5.47;71.67;101869.98;1651161;86;25762;-59
2022/05/01 03:07:43;;;;;;;21.00;12.75;;;;;;;5.43;71.87;101873.72;1651633;86;25832;-59
2022/05/01 03:10:10;;;;;;;20.68;12.68;;;;;;;5.37;71.69;101873.58;1651648;86;25914;-59
2022/05/01 03:12:38;;;;;;;21.62;13.10;;;;;;;5.33;71.82;101880.84;1651434;86;25698;-59
2022/05/01 03:15:08;;;;;;;26.50;12.90;;;;;;;5.31;71.88;101884.08;1651656;86;27570;-59
2022/05/01 03:23:07;;;;;;;17.23;11.03;;;;;;;5.25;72.51;101897.70;1673370;85;25658;-59
2022/05/01 03:25:34;;;;;;;18.00;11.18;;;;;;;5.26;72.75;101897.25;1673425;85;25963;-59
2022/05/01 03:28:02;;;;;;;22.77;11.70;;;;;;;5.26;72.94;101895.91;1673166;85;27499;-59
2022/05/01 03:30:28;;;;;;;20.12;10.88;;;;;;;5.28;73.25;101896.71;1672910;85;25725;-58
2022/05/01 03:32:55;;;;;;;16.73;10.28;;;;;;;5.30;73.40;101897.47;1662043;85;25663;-58
2022/05/01 03:35:23;;;;;;;18.70;10.98;;;;;;;5.38;73.48;101909.13;1653272;86;25874;-59
2022/05/01 03:37:50;;;;;;;16.00;10.85;;;;;;;5.42;73.57;101899.56;1653354;86;26474;-58
2022/05/01 03:40:18;;;;;;;23.98;11.33;;;;;;;5.50;73.74;101904.53;1652852;86;27492;-59
2022/05/01 03:42:45;;;;;;;28.30;11.10;;;;;;;5.53;73.72;101901.69;1648530;85;25825;-58
2022/05/01 03:45:13;;;;;;;16.57;10.85;;;;;;;5.59;73.69;101908.53;1644593;87;25763;-58
2022/05/01 03:47:40;;;;;;;16.12;10.23;;;;;;;5.60;73.73;101904.45;1644722;86;25843;-59
2022/05/01 03:50:09;;;;;;;23.52;11.08;;;;;;;5.63;73.73;101904.79;1642709;86;25755;-59
2022/05/01 03:52:36;;;;;;;15.95;11.00;;;;;;;5.69;73.86;101904.95;1640421;87;28579;-59
2022/05/01 03:55:04;;;;;;;22.70;10.53;;;;;;;5.67;73.87;101905.02;1640316;86;25744;-58
2022/05/01 03:57:32;;;;;;;16.77;10.78;;;;;;;5.69;73.97;101908.48;1620558;87;25545;-59
2022/05/01 03:59:59;;;;;;;16.30;10.65;;;;;;;5.75;74.18;101912.66;1640370;87;25957;-59
2022/05/01 04:02:25;;;;;;;18.45;10.85;;;;;;;5.83;74.82;101913.12;1640593;86;25770;-58
2022/05/01 04:04:53;;;;;;;15.28;10.15;;;;;;;5.86;74.48;101911.65;1640260;86;27466;-59
2022/05/01 04:07:19;;;;;;;15.45;10.08;;;;;;;5.92;74.36;101914.00;1640165;87;26157;-59
2022/05/01 04:09:46;;;;;;;15.65;10.38;;;;;;;5.98;74.29;101911.95;1640119;87;25737;-59
2022/05/01 04:12:13;;;;;;;17.45;9.85;;;;;;;6.02;74.73;101908.22;1640314;87;25792;-58
2022/05/01 04:14:40;;;;;;;17.17;10.75;;;;;;;6.00;74.84;101916.78;1640088;87;25461;-58
2022/05/01 04:17:07;;;;;;;16.07;10.40;;;;;;;5.98;74.41;101914.62;1640144;86;27647;-59
2022/05/01 04:19:34;;;;;;;14.85;9.28;;;;;;;6.07;74.73;101901.70;1640390;86;25797;-58
2022/05/01 04:22:01;;;;;;;16.80;10.90;;;;;;;6.14;74.80;101904.90;1640439;86;25722;-58
2022/05/01 04:24:28;;;;;;;17.00;11.25;;;;;;;6.18;74.73;101917.17;1640181;87;25801;-58
2022/05/01 04:26:56;;;;;;;18.80;10.32;;;;;;;6.20;74.40;101915.29;1640350;87;26178;-59
2022/05/01 04:29:38;;;;;;;16.97;10.20;;;;;;;6.31;74.51;101919.22;1640058;87;27490;-59
2022/05/01 04:32:08;;;;;;;13.43;10.13;;;;;;;6.41;74.69;101909.74;1642232;87;25770;-59
2022/05/01 04:34:35;;;;;;;16.95;11.12;;;;;;;6.52;74.45;101907.86;1644769;86;25838;-59
2022/05/01 04:37:03;;;;;;;17.55;12.05;;;;;;;6.57;74.31;101904.45;1640405;87;25822;-59
2022/05/01 04:39:30;;;;;;;13.50;11.43;;;;;;;6.60;74.15;101903.42;1640183;87;25711;-59
2022/05/01 04:41:57;;;;;;;12.93;10.65;;;;;;;6.68;74.38;101895.88;1641372;86;28503;-59
2022/05/01 04:44:24;;;;;;;14.65;11.28;;;;;;;6.72;74.20;101894.26;1649195;86;25818;-59
2022/05/01 04:46:51;;;;;;;17.10;12.30;;;;;;;6.78;74.03;101894.40;1649089;86;25795;-59
2022/05/01 04:49:21;;;;;;;19.40;13.18;;;;;;;6.83;73.71;101898.16;1648270;86;25796;-58
2022/05/01 04:51:48;;;;;;;14.95;12.07;;;;;;;6.87;73.94;101891.22;1643025;86;25789;-59
2022/05/01 04:54:16;;;;;;;16.12;13.32;;;;;;;6.91;73.85;101886.56;1645268;86;27499;-59
2022/05/01 04:59:28;;;;;;;18.90;15.05;;;;;;;6.98;73.84;101893.33;1645498;86;25552;-60
2022/05/01 05:01:54;;;;;;;26.23;15.45;;;;;;;7.04;73.73;101896.11;1645399;86;25773;-59
2022/05/01 05:04:21;;;;;;;20.82;16.00;;;;;;;7.08;73.51;101901.69;1651765;86;25722;-58
2022/05/01 05:06:52;;;;;;;25.80;17.17;;;;;;;7.13;73.68;101906.30;1652910;85;27391;-59
2022/05/01 05:12:07;;;;;;;25.30;18.05;;;;;;;7.23;73.72;101908.45;1654221;86;25752;-60
2022/05/01 05:14:34;;;;;;;35.80;19.17;;;;;;;7.28;73.87;101905.06;1652249;86;25828;-59
2022/05/01 05:17:01;;;;;;;34.53;21.02;;;;;;;7.33;73.73;101905.66;1654649;86;25717;-59
2022/05/01 05:19:28;;;;;;;39.80;19.77;;;;;;;7.40;73.81;101902.16;1654637;85;27484;-59
2022/05/01 05:21:55;;;;;;;27.55;19.60;;;;;;;7.47;73.98;101905.75;1654559;86;25862;-59
2022/05/01 05:24:22;;;;;;;28.07;19.00;;;;;;;7.57;74.16;101905.22;1654924;86;25906;-59
2022/05/01 05:26:49;;;;;;;29.00;19.87;;;;;;;7.66;74.25;101910.89;1654743;86;26588;-58
2022/05/01 05:29:16;;;;;;;37.65;20.60;;;;;;;7.76;74.41;101909.87;1654453;85;25816;-59
2022/05/01 05:31:44;;;;;;;26.65;18.42;;;;;;;7.88;74.61;101911.45;1654175;86;28686;-59
2022/05/01 05:34:13;;;;;;;35.83;19.98;;;;;;;7.98;74.61;101915.31;1707671;83;26249;-60
2022/05/01 05:36:40;;;;;;;31.82;18.23;;;;;;;8.12;74.88;101908.64;1708478;83;25746;-58
2022/05/01 05:39:08;;;;;;;35.00;19.12;;;;;;;8.26;74.73;101909.64;1707939;83;25878;-59
2022/05/01 05:41:35;;;;;;;29.85;19.75;;;;;;;8.41;74.99;101914.55;1707934;83;25446;-59
2022/05/01 05:44:02;;;;;;;27.85;18.55;;;;;;;8.48;74.42;101909.22;1688477;83;26768;-58
2022/05/01 05:46:29;;;;;;;32.67;18.02;;;;;;;8.63;74.55;101905.19;1684133;84;25788;-60
2022/05/01 05:48:58;;;;;;;37.30;18.15;;;;;;;8.75;74.37;101913.33;1684670;84;25812;-59
2022/05/01 05:51:25;;;;;;;26.40;18.10;;;;;;;8.88;74.21;101909.39;1684556;83;25777;-59
2022/05/01 05:53:53;;;;;;;34.83;17.73;;;;;;;9.02;74.06;101909.01;1682305;84;25767;-59
2022/05/01 05:56:21;;;;;;;29.60;18.00;;;;;;;9.16;73.90;101907.63;1681908;85;28291;-59
2022/05/01 05:58:48;;;;;;;45.23;17.45;;;;;;;9.25;73.47;101907.53;1687399;84;25543;-59
2022/05/01 06:01:15;;;;;;;35.92;16.30;;;;;;;9.33;73.32;101907.89;1683691;83;25729;-59
2022/05/01 06:03:45;;;;;;;39.58;16.65;;;;;;;9.44;73.36;101909.86;1675971;84;25740;-59
2022/05/01 06:06:12;;;;;;;31.57;16.67;;;;;;;9.53;72.88;101912.44;1654537;86;25757;-59
2022/05/01 06:08:39;;;;;;;24.82;15.95;;;;;;;9.58;72.60;101910.30;1655211;86;28546;-60
2022/05/01 06:11:06;;;;;;;27.35;15.85;;;;;;;9.65;72.46;101906.73;1655245;86;25821;-60
2022/05/01 06:13:35;;;;;;;24.43;16.48;;;;;;;9.72;72.26;101908.03;1652817;86;25700;-58
2022/05/01 06:16:02;;;;;;;28.98;16.07;;;;;;;9.79;72.00;101905.80;1650592;86;26665;-59
2022/05/01 06:18:32;;;;;;;31.02;16.75;;;;;;;9.86;71.90;101916.02;1650894;86;25501;-59
2022/05/01 06:20:59;;;;;;;32.00;16.20;;;;;;;9.93;71.83;101908.41;1649585;86;27306;-59
2022/05/01 06:23:26;;;;;;;27.77;17.75;;;;;;;10.01;71.65;101909.24;1650298;86;25825;-59
2022/05/01 06:25:54;;;;;;;27.85;16.30;;;;;;;10.09;71.51;101916.77;1650544;86;25737;-59
2022/05/01 06:28:21;;;;;;;25.90;16.37;;;;;;;10.15;71.49;101910.49;1650132;85;25872;-59
2022/05/01 06:30:50;;;;;;;21.27;15.83;;;;;;;10.22;71.35;101904.22;1649722;86;25497;-59
2022/05/01 06:33:19;;;;;;;29.10;16.23;;;;;;;10.30;71.17;101902.35;1627766;86;27510;-59
2022/05/01 06:35:53;;;;;;;24.47;15.45;;;;;;;10.39;71.06;101903.09;1621004;88;25885;-59
2022/05/01 06:38:21;;;;;;;25.55;15.40;;;;;;;10.48;70.93;101904.26;1626710;88;25721;-59
2022/05/01 06:40:49;;;;;;;27.00;12.07;;;;;;;10.58;70.90;101903.99;1626889;87;25886;-59
2022/05/01 06:43:19;;;;;;;18.12;9.78;;;;;;;10.69;70.53;101901.03;1624527;87;25608;-59
2022/05/01 06:45:47;;;;;;;15.00;10.63;;;;;;;10.83;69.75;101898.20;1621491;87;27523;-59
2022/05/01 06:48:14;;;;;;;15.08;9.05;;;;;;;11.01;69.63;101894.67;1650061;85;25540;-59
2022/05/01 06:50:41;;;;;;;16.30;9.83;;;;;;;11.18;69.48;101897.47;1641112;87;25782;-59
2022/05/01 06:53:08;;;;;;;16.80;9.45;;;;;;;11.34;69.28;101900.40;1640924;86;26510;-59
2022/05/01 06:55:35;;;;;;;22.90;9.58;;;;;;;11.49;68.08;101905.98;1641153;86;25783;-59
2022/05/01 06:58:02;;;;;;;16.60;11.48;;;;;;;11.67;68.07;101902.89;1641110;87;27499;-59
2022/05/01 07:00:28;;;;;;;22.37;11.05;;;;;;;11.88;67.27;101900.39;1640925;86;25724;-59
2022/05/01 07:02:55;;;;;;;24.52;12.93;;;;;;;12.05;66.70;101907.23;1642133;86;25828;-59
2022/05/01 07:05:23;;;;;;;24.80;9.73;;;;;;;12.21;66.68;101898.32;1654534;86;25841;-59
2022/05/01 07:07:51;;;;;;;13.45;7.78;;;;;;;12.41;66.50;101901.31;1654768;86;25951;-59
2022/05/01 07:10:19;;;;;;;7.53;4.75;;;;;;;12.59;66.00;101900.83;1654616;86;27448;-59
2022/05/01 07:12:46;;;;;;;12.80;7.00;;;;;;;12.74;64.34;101898.73;1654608;86;25750;-59
2022/05/01 07:15:14;;;;;;;19.23;6.80;;;;;;;12.87;62.46;101893.20;1654669;86;25736;-59
2022/05/01 07:17:42;;;;;;;9.20;5.75;;;;;;;13.03;61.33;101895.52;1654676;86;25953;-59
2022/05/01 07:20:10;;;;;;;13.32;8.05;;;;;;;13.17;60.96;101893.92;1654778;86;25852;-59
2022/05/01 07:22:37;;;;;;;9.13;5.35;;;;;;;13.28;60.81;101896.58;1654505;86;27486;-59
2022/05/01 07:25:06;;;;;;;10.10;5.22;;;;;;;13.40;59.99;101892.53;1657132;86;25784;-59
2022/05/01 07:27:33;;;;;;;9.43;4.92;;;;;;;13.51;59.93;101891.16;1669075;85;25519;-59
2022/05/01 07:30:00;;;;;;;10.65;5.22;;;;;;;13.63;57.89;101885.21;1669105;85;25785;-59
2022/05/01 07:32:27;;;;;;;10.90;5.87;;;;;;;13.76;57.30;101891.80;1658718;86;26153;-59
2022/05/01 07:34:54;;;;;;;11.55;6.40;;;;;;;13.87;57.71;101884.11;1641065;86;27408;-59
2022/05/01 07:37:24;;;;;;;14.60;5.45;;;;;;;14.00;55.61;101884.80;1641071;87;25733;-59
2022/05/01 07:39:51;;;;;;;12.53;5.20;;;;;;;14.09;56.34;101889.89;1641072;86;25770;-59
2022/05/01 07:42:18;;;;;;;16.15;5.92;;;;;;;14.23;56.00;101886.88;1641423;86;25765;-59
2022/05/01 07:44:45;;;;;;;6.53;4.30;;;;;;;14.35;56.23;101886.30;1659902;84;25818;-59
2022/05/01 07:47:12;;;;;;;10.98;6.35;;;;;;;14.46;55.32;101882.64;1662193;84;27427;-59
2022/05/01 07:49:39;;;;;;;9.10;6.30;;;;;;;14.59;54.96;101877.00;1674080;83;25927;-59
2022/05/01 07:52:08;;;;;;;11.63;6.50;;;;;;;14.67;54.87;101877.21;1707969;83;25536;-59
2022/05/01 07:54:35;;;;;;;12.15;6.80;;;;;;;14.78;55.05;101869.98;1707993;84;26560;-59
2022/05/01 07:57:04;;;;;;;11.25;5.50;;;;;;;14.89;53.97;101864.47;1707901;83;25782;-59
2022/05/01 07:59:30;;;;;;;15.30;5.37;;;;;;;14.97;52.04;101864.64;1707692;83;27447;-59
2022/05/01 08:01:57;;;;;;;5.97;3.87;;;;;;;15.08;52.53;101865.52;1707700;84;25802;-59
2022/05/01 08:04:30;;;;;;;14.35;3.20;;;;;;;15.18;51.96;101864.53;1671425;84;25521;-59
2022/05/01 08:06:59;;;;;;;5.40;2.80;;;;;;;15.38;47.93;101865.05;1654577;86;26001;-59
2022/05/01 08:09:29;;;;;;;4.85;2.65;;;;;;;15.48;47.13;101860.02;1655286;85;25835;-59
2022/05/01 08:11:56;;;;;;;6.92;2.70;;;;;;;15.58;48.21;101860.01;1654993;86;27477;-59
2022/05/01 08:14:23;;;;;;;6.62;3.42;;;;;;;15.68;47.03;101852.37;1655101;85;25702;-59
2022/05/01 08:16:51;;;;;;;6.42;3.05;;;;;;;15.81;46.31;101848.88;1655060;85;25761;-59
2022/05/01 08:22:06;;;;;;;8.88;2.62;;;;;;;16.08;46.87;101840.52;1655204;86;25798;-59
2022/05/01 08:24:34;;;;;;;7.10;2.70;;;;;;;16.25;44.75;101847.02;1653122;86;27454;-60
2022/05/01 08:27:05;;;;;;;12.80;2.90;;;;;;;16.38;44.59;101846.69;1655053;86;25764;-59
2022/05/01 08:29:33;;;;;;;5.50;2.27;;;;;;;16.47;44.04;101840.89;1654894;86;25753;-59
2022/05/01 08:32:00;;;;;;;3.25;1.82;;;;;;;16.58;43.55;101842.91;1656383;85;25942;-59
2022/05/01 08:34:28;;;;;;;2.42;1.90;;;;;;;16.69;44.03;101843.20;1662237;86;25791;-59
2022/05/01 08:36:56;;;;;;;9.25;2.08;;;;;;;16.88;43.65;101841.39;1660138;86;27486;-59
2022/05/01 08:39:23;;;;;;;17.10;4.28;;;;;;;17.06;41.49;101840.13;1662349;85;25813;-59
2022/05/01 08:41:50;;;;;;;15.93;1.90;;;;;;;17.20;41.04;101831.94;1662057;86;25773;-59
2022/05/01 08:44:23;;;;;;;3.90;1.65;;;;;;;17.32;37.84;101833.41;1658551;85;25738;-59
2022/05/01 08:47:03;;;;;;;9.87;2.40;;;;;;;17.45;38.62;101833.02;1653750;86;25776;-59
2022/05/01 08:49:33;;;;;;;6.80;1.85;;;;;;;17.61;39.40;101830.95;1624197;88;27689;-60
2022/05/01 08:52:02;;;;;;;5.87;1.72;;;;;;;17.80;39.03;101833.99;1640346;87;25802;-59
2022/05/01 08:54:31;;;;;;;3.37;2.15;;;;;;;17.97;38.46;101819.20;1640294;87;25809;-59
2022/05/01 08:57:00;;;;;;;4.55;1.70;;;;;;;18.12;37.36;101823.53;1640203;87;25803;-59
2022/05/01 08:59:31;;;;;;;2.37;1.77;;;;;;;18.29;36.37;101815.80;1642752;86;25811;-60
2022/05/01 09:01:58;;;;;;;4.47;2.37;;;;;;;18.46;35.53;101816.75;1654618;84;27679;-59
2022/05/01 09:04:26;;;;;;;10.65;2.05;;;;;;;18.66;33.17;101811.54;1617771;86;26263;-59
2022/05/01 09:06:53;;;;;;;11.63;2.10;;;;;;;18.77;35.34;101815.34;1601892;87;25731;-59
2022/05/01 09:09:23;;;;;;;5.92;1.82;;;;;;;18.97;36.12;101809.64;1602105;89;25981;-60
2022/05/01 09:14:42;;;;;;;4.80;1.92;;;;;;;19.50;35.02;101816.55;1602015;89;27454;-59
2022/05/01 09:17:17;;;;;;;7.37;1.98;;;;;;;19.77;31.92;101806.80;1602133;89;25849;-59
2022/05/01 09:19:50;;;;;;;8.48;1.75;;;;;;;20.04;31.88;101805.61;1601970;89;25547;-59
2022/05/01 09:22:20;;;;;;;5.53;1.52;;;;;;;20.37;31.19;101804.15;1602017;87;25823;-60
2022/05/01 09:24:53;;;;;;;3.60;1.82;;;;;;;20.71;30.06;101803.50;1601979;89;25851;-59
2022/05/01 09:27:32;;;;;;;2.05;1.10;;;;;;;21.06;29.36;101803.52;1601550;87;28432;-59
2022/05/01 09:30:22;;;;;;;2.80;1.60;;;;;;;21.58;30.31;101801.11;1601837;89;26073;-59
2022/05/01 09:32:53;;;;;;;4.22;1.67;;;;;;;22.27;29.51;101793.22;1614223;87;25844;-59
2022/05/01 09:35:35;;;;;;;6.37;1.98;;;;;;;22.84;27.59;101790.82;1624685;88;26674;-59
2022/05/01 09:38:18;;;;;;;9.60;2.00;;;;;;;23.37;27.42;101788.34;1624703;88;25825;-59
2022/05/01 09:40:50;;;;;;;6.37;2.73;;;;;;;24.52;28.22;101782.07;1618568;88;28403;-60
2022/05/01 09:43:38;;;;;;;7.20;1.50;;;;;;;24.52;28.22;101782.07;1618191;88;26382;-60
2022/05/01 09:46:24;;;;;;;5.00;1.70;;;;;;;24.93;27.39;101780.85;1662396;85;25832;-60
2022/05/01 09:49:13;;;;;;;15.25;1.75;;;;;;;25.49;27.44;101777.47;1646816;86;25803;-60
2022/05/01 09:51:56;;;;;;;4.47;1.80;;;;;;;26.06;25.25;101775.08;1659070;86;25521;-60
2022/05/01 09:54:27;;;;;;;3.77;1.85;;;;;;;26.43;22.64;101771.84;1647067;86;27307;-60
2022/05/01 09:56:57;;;;;;;9.13;2.60;;;;;;;26.63;23.94;101773.13;1658701;86;25845;-59
2022/05/01 09:59:28;;;;;;;10.32;1.55;;;;;;;26.85;24.13;101777.27;1646876;87;25793;-60
2022/05/01 10:02:06;;;;;;;3.15;1.55;;;;;;;26.92;22.38;101765.36;1658908;86;25597;-60
2022/05/01 10:04:36;;;;;;;5.87;1.80;;;;;;;26.40;23.15;101767.61;1638718;86;25846;-60
2022/05/01 10:07:05;;;;;;;2.95;1.40;;;;;;;25.86;22.77;101769.10;1635710;87;27608;-59
2022/05/01 10:09:34;;;;;;;2.40;1.30;;;;;;;25.85;23.13;101765.16;1635819;87;25822;-59
2022/05/01 10:12:07;;;;;;;2.12;1.07;;;;;;;26.39;23.07;101756.26;1636367;87;25902;-59
2022/05/01 10:14:34;;;;;;;2.15;1.22;;;;;;;27.02;21.05;101757.45;1635399;87;25777;-59
2022/05/01 10:17:03;;;;;;;5.70;1.27;;;;;;;27.29;20.83;101753.11;1636528;87;25944;-60
2022/05/01 10:19:31;;;;;;;5.33;1.32;;;;;;;27.64;20.51;101751.25;1629533;86;27460;-60
2022/05/01 10:21:59;;;;;;;3.72;1.35;;;;;;;28.32;20.46;101748.64;1626240;88;25750;-60
2022/05/01 10:24:33;;;;;;;6.78;1.75;;;;;;;28.68;19.71;101749.66;1635555;86;25830;-59
2022/05/01 10:27:22;;;;;;;6.90;2.12;;;;;;;29.18;19.28;101743.81;1651279;86;25810;-60
2022/05/01 10:33:03;;;;;;;5.22;1.22;;;;;;;29.66;18.92;101737.80;1649090;86;27628;-60
2022/05/01 10:35:57;;;;;;;3.37;1.27;;;;;;;30.21;18.15;101734.32;1644998;87;25765;-60
2022/05/01 10:41:33;;;;;;;2.95;1.42;;;;;;;30.09;18.01;101737.12;1648298;85;25751;-60
2022/05/01 10:44:02;;;;;;;10.63;2.20;;;;;;;30.53;18.12;101730.27;1620175;87;25728;-60
2022/05/01 10:46:32;;;;;;;3.45;1.50;;;;;;;30.12;17.99;101733.02;1628618;86;27469;-60
2022/05/01 10:49:05;;;;;;;4.42;1.47;;;;;;;29.40;17.95;101725.80;1628812;86;25736;-60
2022/05/01 10:51:41;;;;;;;4.28;1.50;;;;;;;28.57;17.81;101729.13;1627873;87;25797;-61
2022/05/01 10:54:19;;;;;;;2.12;1.40;;;;;;;28.58;18.33;101726.15;1642777;85;26945;-60
2022/05/01 10:56:55;;;;;;;3.30;1.37;;;;;;;28.78;17.77;101724.20;1654693;86;25756;-60
2022/05/01 10:59:35;;;;;;;4.55;1.25;;;;;;;29.12;17.53;101718.98;1654739;86;27456;-60
2022/05/01 11:02:04;;;;;;;2.77;1.47;;;;;;;29.51;17.40;101716.66;1654715;86;25822;-60
2022/05/01 11:04:41;;;;;;;3.25;1.20;;;;;;;30.31;16.90;101714.81;1650696;86;25816;-60
2022/05/01 11:07:13;;;;;;;5.75;1.40;;;;;;;30.94;16.66;101715.73;1648580;87;25738;-60
2022/05/01 11:09:47;;;;;;;6.37;2.17;;;;;;;31.32;16.39;101702.25;1649476;86;25864;-60
2022/05/01 11:12:17;;;;;;;3.15;1.80;;;;;;;31.89;16.15;101701.69;1654085;86;27465;-60
2022/05/01 11:14:55;;;;;;;5.08;1.30;;;;;;;31.89;14.78;101694.73;1653925;86;25768;-60
2022/05/01 11:17:39;;;;;;;2.58;1.17;;;;;;;32.16;15.36;101694.25;1653104;86;25791;-60
2022/05/01 11:20:23;;;;;;;2.15;1.10;;;;;;;32.50;15.52;101692.44;1651362;86;26616;-59
2022/05/01 11:22:52;;;;;;;2.60;1.02;;;;;;;32.65;15.00;101693.98;1648889;87;26429;-60
2022/05/01 11:25:34;;;;;;;6.00;1.17;;;;;;;33.17;14.80;101687.49;1648115;87;27474;-60
2022/05/01 11:28:00;;;;;;;2.45;1.10;;;;;;;33.45;14.15;101691.06;1648862;86;26018;-59
2022/05/01 11:30:32;;;;;;;7.78;1.32;;;;;;;33.43;14.49;101697.46;1648936;87;25520;-60
2022/05/01 11:33:09;;;;;;;3.10;0.98;;;;;;;32.84;15.22;101698.64;1642770;86;26507;-60
2022/05/01 11:36:02;;;;;;;1.57;1.10;;;;;;;32.74;14.71;101685.44;1638198;87;25766;-60
2022/05/01 11:38:46;;;;;;;3.72;1.17;;;;;;;32.77;15.42;101684.89;1638079;87;27426;-60
2022/05/01 11:41:12;;;;;;;3.55;1.20;;;;;;;33.20;15.81;101685.01;1638062;87;25726;-60
2022/05/01 11:43:39;;;;;;;3.30;1.30;;;;;;;33.51;15.38;101689.45;1638273;87;25783;-60
2022/05/01 11:46:19;;;;;;;9.40;1.40;;;;;;;33.53;15.30;101686.38;1638053;87;25785;-60
2022/05/01 11:48:46;;;;;;;1.85;1.47;;;;;;;33.88;14.93;101687.70;1638140;87;25457;-60
2022/05/01 11:51:15;;;;;;;2.65;1.20;;;;;;;33.58;15.07;101682.78;1644572;87;27502;-60
2022/05/01 11:53:45;;;;;;;1.85;1.10;;;;;;;32.76;15.32;101686.02;1644925;87;25766;-60
2022/05/01 12:04:37;;;;;;;6.58;2.58;;;;;;;31.29;16.34;101677.73;1625472;86;27521;-60
2022/05/01 12:07:14;;;;;;;6.80;3.20;;;;;;;30.82;15.36;101678.88;1630918;87;25802;-60
2022/05/01 12:09:43;;;;;;;2.87;1.50;;;;;;;29.60;16.40;101681.94;1634080;86;25852;-60
2022/05/01 12:12:13;;;;;;;6.80;1.55;;;;;;;28.90;17.04;101672.47;1634305;86;26496;-60